Time;durP1;ratioP1;P1;durP2;ratioP2;P2;SDS_P1;SDS_P2;PMS_P1;PMS_P2;Temp;Humidity;BMP_temperature;BMP_pressure;BME280_temperature;BME280_humidity;BME280_pressure;Samples;Min_cycle;Max_cycle;Signal;HPM_P1;HPM_P2
2021/04/18 00:03:48;;;;;;;6.53;1.50;;;9.90;99.90;;;;;;20451836;29;20232;-71
2021/04/18 00:13:52;;;;;;;0.97;0.97;;;9.80;99.90;;;;;;20434725;29;20235;-71
2021/04/18 00:23:54;;;;;;;1.70;1.03;;;9.60;99.90;;;;;;20452332;29;20200;-70
2021/04/18 00:33:58;;;;;;;1.10;1.10;;;9.50;99.90;;;;;;20456240;29;20232;-69
2021/04/18 00:44:05;;;;;;;0.33;0.33;;;9.60;99.90;;;;;;20452513;29;20197;-70
2021/04/18 00:54:09;;;;;;;1.50;0.90;;;9.40;99.90;;;;;;20467863;28;20232;-70
2021/04/18 01:04:11;;;;;;;0.77;0.77;;;9.40;99.90;;;;;;20486594;28;20228;-70
2021/04/18 01:14:15;;;;;;;1.80;1.43;;;9.50;99.90;;;;;;20468665;29;20347;-71
2021/04/18 01:24:18;;;;;;;0.50;0.50;;;9.30;99.90;;;;;;20466802;29;20211;-71
2021/04/18 01:34:21;;;;;;;1.80;1.17;;;9.10;99.90;;;;;;20467721;29;20274;-71
2021/04/18 01:44:27;;;;;;;0.43;0.43;;;9.10;99.90;;;;;;20463247;29;20189;-71
2021/04/18 01:54:29;;;;;;;0.63;0.63;;;8.90;99.90;;;;;;20463118;29;20311;-71
2021/04/18 02:04:33;;;;;;;0.40;0.30;;;8.90;99.90;;;;;;20462275;28;20268;-69
2021/04/18 02:14:36;;;;;;;0.93;0.53;;;8.90;99.90;;;;;;20463457;29;20228;-70
2021/04/18 02:24:40;;;;;;;1.30;0.93;;;9.10;99.90;;;;;;20460571;29;20204;-70
2021/04/18 02:34:42;;;;;;;0.73;0.73;;;9.00;99.90;;;;;;20444046;29;20244;-73
2021/04/18 02:44:46;;;;;;;0.80;0.80;;;8.90;99.90;;;;;;20445285;29;20192;-70
2021/04/18 02:54:49;;;;;;;0.30;0.30;;;9.00;99.90;;;;;;20443379;29;20239;-70
2021/04/18 03:04:52;;;;;;;0.60;0.60;;;9.10;99.90;;;;;;20458972;29;20659;-68
2021/04/18 03:14:55;;;;;;;5.80;1.50;;;9.10;99.90;;;;;;20458295;28;20331;-69
2021/04/18 03:24:59;;;;;;;0.40;0.40;;;8.90;99.90;;;;;;20457182;29;20205;-69
2021/04/18 03:35:02;;;;;;;0.57;0.40;;;8.90;99.90;;;;;;20457291;28;20327;-70
2021/04/18 03:45:07;;;;;;;1.47;0.83;;;8.80;99.90;;;;;;20454913;29;20200;-70
2021/04/18 03:55:13;;;;;;;4.93;1.03;;;8.80;99.90;;;;;;20457318;29;20232;-69
2021/04/18 04:05:16;;;;;;;0.30;0.30;;;8.80;99.90;;;;;;20453245;28;20254;-72
2021/04/18 04:15:19;;;;;;;1.00;1.00;;;8.70;99.90;;;;;;20456559;29;20998;-73
2021/04/18 04:25:22;;;;;;;1.77;0.67;;;8.70;99.90;;;;;;20453475;29;20284;-72
2021/04/18 04:35:25;;;;;;;0.50;0.50;;;8.60;99.90;;;;;;20454367;29;20259;-70
2021/04/18 04:45:28;;;;;;;1.57;0.40;;;8.60;99.90;;;;;;20451794;29;20216;-73
2021/04/18 04:55:31;;;;;;;0.40;0.40;;;8.60;99.90;;;;;;20435797;29;20228;-73
2021/04/18 05:05:34;;;;;;;0.30;0.30;;;8.60;99.90;;;;;;20453467;29;20228;-73
2021/04/18 05:15:37;;;;;;;0.20;0.20;;;8.60;99.90;;;;;;20456399;29;20275;-72
2021/04/18 05:25:41;;;;;;;0.50;0.50;;;8.60;99.90;;;;;;20450969;29;20196;-72
2021/04/18 05:35:43;;;;;;;1.23;1.13;;;8.70;99.90;;;;;;20455548;28;20260;-74
2021/04/18 05:45:46;;;;;;;0.40;0.40;;;8.60;99.90;;;;;;20465077;29;20280;-72
2021/04/18 05:55:49;;;;;;;0.50;0.50;;;8.70;99.90;;;;;;20463583;29;20220;-73
2021/04/18 06:05:52;;;;;;;2.50;1.07;;;8.90;99.90;;;;;;20461615;29;20221;-73
2021/04/18 06:15:55;;;;;;;0.43;0.37;;;9.00;99.90;;;;;;20461280;29;20583;-71
2021/04/18 06:26:00;;;;;;;2.10;0.73;;;9.20;99.90;;;;;;20461927;29;20280;-72
2021/04/18 06:36:03;;;;;;;0.20;0.13;;;9.20;99.90;;;;;;20459488;29;20615;-71
2021/04/18 06:46:07;;;;;;;3.70;1.10;;;9.30;99.90;;;;;;20441719;28;20209;-73
2021/04/18 06:56:10;;;;;;;2.67;1.07;;;9.60;99.90;;;;;;20458729;29;20690;-71
2021/04/18 07:06:14;;;;;;;0.53;0.53;;;10.10;99.90;;;;;;20457844;29;20364;-72
2021/04/18 07:16:24;;;;;;;0.70;0.70;;;10.70;99.90;;;;;;20455466;29;20225;-72
2021/04/18 07:26:28;;;;;;;0.63;0.47;;;11.10;99.90;;;;;;20454532;29;20193;-72
2021/04/18 07:36:31;;;;;;;0.60;0.60;;;11.40;99.90;;;;;;20457797;29;20227;-72
2021/04/18 07:46:35;;;;;;;0.50;0.43;;;11.60;99.90;;;;;;20455374;29;20576;-73
2021/04/18 07:56:41;;;;;;;0.60;0.60;;;12.00;99.90;;;;;;20454760;28;20585;-71
2021/04/18 08:06:45;;;;;;;0.30;0.30;;;12.60;99.90;;;;;;20452644;29;20239;-73
2021/04/18 08:17:03;;;;;;;0.20;0.10;;;13.00;99.90;;;;;;20437117;29;20235;-71
2021/04/18 08:27:08;;;;;;;0.73;0.60;;;13.10;99.90;;;;;;20456135;29;21072;-72
2021/04/18 08:37:21;;;;;;;0.80;0.50;;;13.40;99.90;;;;;;20453635;29;20661;-73
2021/04/18 08:47:28;;;;;;;2.27;0.50;;;13.60;99.90;;;;;;20459218;29;20206;-71
2021/04/18 08:57:32;;;;;;;1.43;0.60;;;14.20;99.90;;;;;;20480812;29;20601;-70
2021/04/18 09:07:40;;;;;;;0.20;0.20;;;14.30;99.90;;;;;;20452228;28;20272;-68
2021/04/18 09:17:43;;;;;;;0.20;0.20;;;14.50;99.90;;;;;;20462672;29;20278;-69
2021/04/18 09:27:48;;;;;;;0.30;0.20;;;15.10;99.90;;;;;;20463987;28;20199;-72
2021/04/18 09:37:54;;;;;;;0.30;0.30;;;14.90;99.90;;;;;;20464715;29;20232;-69
2021/04/18 09:48:10;;;;;;;3.10;0.50;;;15.30;99.90;;;;;;20450464;29;20677;-68
2021/04/18 09:58:25;;;;;;;0.80;0.80;;;15.60;99.90;;;;;;20452453;29;20737;-69
2021/04/18 10:08:31;;;;;;;0.63;0.33;;;15.90;99.90;;;;;;20449737;29;20220;-69
2021/04/18 10:18:36;;;;;;;2.30;1.90;;;16.10;99.90;;;;;;20436701;28;20229;-68
2021/04/18 10:28:39;;;;;;;0.67;0.60;;;16.30;99.90;;;;;;20455673;29;20189;-69
2021/04/18 10:38:43;;;;;;;0.57;0.57;;;16.80;99.90;;;;;;20422976;29;20784;-72
2021/04/18 10:48:47;;;;;;;2.57;1.03;;;17.30;99.90;;;;;;20455967;29;20551;-70
2021/04/18 10:58:50;;;;;;;1.63;0.93;;;17.90;99.90;;;;;;20456399;29;20796;-72
2021/04/18 11:08:53;;;;;;;0.87;0.67;;;18.30;99.90;;;;;;20452757;29;20697;-70
2021/04/18 11:18:56;;;;;;;0.90;0.90;;;19.10;99.90;;;;;;20453425;28;20495;-70
2021/04/18 11:28:59;;;;;;;1.13;1.03;;;19.90;99.90;;;;;;20449222;29;20308;-69
2021/04/18 11:39:02;;;;;;;0.40;0.40;;;18.40;99.90;;;;;;20448663;28;20327;-69
2021/04/18 11:49:06;;;;;;;0.87;0.87;;;18.00;99.90;;;;;;20449011;29;20211;-70
2021/04/18 11:59:09;;;;;;;1.63;1.40;;;18.10;99.90;;;;;;20449424;29;20878;-69
2021/04/18 12:09:13;;;;;;;1.47;0.90;;;18.20;99.90;;;;;;20447918;29;20592;-69
2021/04/18 12:19:15;;;;;;;1.27;1.17;;;18.50;99.90;;;;;;20448124;29;20259;-69
2021/04/18 12:29:19;;;;;;;0.50;0.50;;;18.40;99.90;;;;;;20429670;29;20204;-69
2021/04/18 12:39:21;;;;;;;2.23;0.80;;;20.10;99.90;;;;;;20450779;29;20547;-68
2021/04/18 12:49:26;;;;;;;4.50;1.03;;;19.60;99.90;;;;;;20463366;28;20563;-69
2021/04/18 12:59:31;;;;;;;0.80;0.70;;;20.30;99.90;;;;;;20465421;29;20229;-69
2021/04/18 13:09:35;;;;;;;2.07;0.80;;;20.70;99.90;;;;;;20466503;29;20315;-67
2021/04/18 13:19:37;;;;;;;0.70;0.57;;;20.50;99.90;;;;;;20449034;29;20563;-68
2021/04/18 13:29:41;;;;;;;3.03;1.27;;;20.50;99.90;;;;;;20460802;29;20204;-69
2021/04/18 13:39:43;;;;;;;2.13;0.80;;;20.70;99.90;;;;;;20466028;29;20489;-69
2021/04/18 13:49:47;;;;;;;2.00;1.10;;;20.80;99.90;;;;;;20462454;29;20201;-74
2021/04/18 13:59:50;;;;;;;0.67;0.60;;;20.70;99.90;;;;;;20460319;28;20693;-69
2021/04/18 14:09:53;;;;;;;1.07;0.70;;;21.90;99.90;;;;;;20456437;28;20201;-68
2021/04/18 14:19:57;;;;;;;1.30;0.73;;;21.50;99.90;;;;;;20440216;29;20370;-69
2021/04/18 14:30:00;;;;;;;3.13;1.40;;;21.50;99.90;;;;;;20455796;29;20572;-70
2021/04/18 14:40:04;;;;;;;1.20;1.03;;;22.00;99.90;;;;;;20439961;29;20282;-68
2021/04/18 14:50:09;;;;;;;0.50;0.37;;;21.50;99.90;;;;;;20454670;29;20209;-69
2021/04/18 15:00:14;;;;;;;0.63;0.63;;;22.10;99.90;;;;;;20450710;29;20340;-68
2021/04/18 15:10:18;;;;;;;1.60;0.43;;;20.70;99.90;;;;;;20435466;28;20201;-68
2021/04/18 15:20:22;;;;;;;0.80;0.50;;;21.70;99.90;;;;;;20452036;29;20272;-68
2021/04/18 15:30:26;;;;;;;0.30;0.30;;;22.30;99.90;;;;;;20446791;29;20197;-69
2021/04/18 15:40:33;;;;;;;0.70;0.50;;;24.00;99.90;;;;;;20441910;29;20240;-70
2021/04/18 15:50:37;;;;;;;1.47;0.90;;;22.60;99.90;;;;;;20443502;29;20193;-71
2021/04/18 16:00:40;;;;;;;2.43;0.77;;;21.00;99.90;;;;;;20446454;29;20237;-70
2021/04/18 16:10:43;;;;;;;0.93;0.47;;;19.40;99.90;;;;;;20443680;29;20189;-70
2021/04/18 16:20:49;;;;;;;1.33;0.73;;;18.60;99.90;;;;;;20427851;28;20244;-70
2021/04/18 16:30:53;;;;;;;1.10;0.57;;;18.20;99.90;;;;;;20446991;29;20205;-71
2021/04/18 16:40:56;;;;;;;4.47;0.90;;;18.20;99.90;;;;;;20428624;29;20311;-70
2021/04/18 16:51:00;;;;;;;0.50;0.50;;;18.40;99.90;;;;;;20445303;29;20721;-71
2021/04/18 17:01:03;;;;;;;0.30;0.30;;;17.50;99.90;;;;;;20439350;29;20353;-71
2021/04/18 17:11:06;;;;;;;1.27;0.87;;;17.60;99.90;;;;;;20408391;29;20611;-71
2021/04/18 17:21:11;;;;;;;0.60;0.40;;;18.20;99.90;;;;;;20407174;29;20229;-71
2021/04/18 17:31:15;;;;;;;0.70;0.60;;;18.80;99.90;;;;;;20406977;28;20190;-74
2021/04/18 17:41:17;;;;;;;0.43;0.43;;;19.20;99.90;;;;;;20416728;29;20225;-72
2021/04/18 17:51:21;;;;;;;0.47;0.47;;;18.10;99.90;;;;;;20413867;28;20537;-73
2021/04/18 18:01:23;;;;;;;1.23;0.60;;;15.60;99.90;;;;;;20426411;29;20236;-69
2021/04/18 18:11:29;;;;;;;1.80;0.57;;;14.80;99.90;;;;;;20454963;29;20228;-73
2021/04/18 18:21:34;;;;;;;2.20;0.40;;;14.50;99.90;;;;;;20454497;29;20225;-72
2021/04/18 18:31:41;;;;;;;0.53;0.50;;;14.40;99.90;;;;;;20443463;28;20211;-71
2021/04/18 18:41:44;;;;;;;0.37;0.37;;;14.50;99.90;;;;;;20540872;28;20252;-74
2021/04/18 18:51:48;;;;;;;2.03;0.87;;;14.30;99.90;;;;;;20504550;28;20632;-74
2021/04/18 19:01:51;;;;;;;0.40;0.40;;;14.10;99.90;;;;;;20433962;29;20613;-72
2021/04/18 19:11:54;;;;;;;0.30;0.30;;;14.10;99.90;;;;;;20451941;29;20204;-73
2021/04/18 19:21:57;;;;;;;0.20;0.20;;;14.00;99.90;;;;;;20452152;29;20681;-74
2021/04/18 19:32:01;;;;;;;0.40;0.30;;;13.90;99.90;;;;;;20416362;28;20313;-74
2021/04/18 19:42:06;;;;;;;1.10;0.73;;;13.90;99.90;;;;;;20402039;29;20440;-74
2021/04/18 19:52:10;;;;;;;0.50;0.43;;;13.70;99.90;;;;;;20424590;28;20220;-75
2021/04/18 20:02:12;;;;;;;9.53;0.97;;;13.80;99.90;;;;;;20426354;29;20252;-74
2021/04/18 20:12:16;;;;;;;1.00;0.73;;;13.70;99.90;;;;;;20450160;29;20879;-76
2021/04/18 20:22:19;;;;;;;0.33;0.33;;;13.20;99.90;;;;;;20449015;29;20204;-73
2021/04/18 20:32:23;;;;;;;0.40;0.40;;;13.00;99.90;;;;;;20432887;28;20343;-75
2021/04/18 20:42:27;;;;;;;0.70;0.60;;;12.70;99.90;;;;;;20426886;29;20200;-75
2021/04/18 20:52:30;;;;;;;0.27;0.27;;;12.40;99.90;;;;;;20448485;29;20643;-76
2021/04/18 21:02:33;;;;;;;0.50;0.40;;;12.00;99.90;;;;;;20447658;28;20224;-74
2021/04/18 21:12:38;;;;;;;11.13;1.60;;;11.90;99.90;;;;;;20445762;29;20399;-75
2021/04/18 21:22:41;;;;;;;0.37;0.37;;;11.70;99.90;;;;;;20443723;29;20197;-74
2021/04/18 21:32:45;;;;;;;0.20;0.20;;;11.30;99.90;;;;;;20463803;29;20256;-75
2021/04/18 21:42:48;;;;;;;0.70;0.70;;;11.20;99.90;;;;;;20461166;29;20828;-75
2021/04/18 21:52:52;;;;;;;0.30;0.30;;;11.30;99.90;;;;;;20462502;29;20232;-76
2021/04/18 22:02:55;;;;;;;0.93;0.93;;;11.00;99.90;;;;;;20458765;29;20239;-75
2021/04/18 22:12:59;;;;;;;0.30;0.23;;;10.70;99.90;;;;;;20414092;29;21037;-75
2021/04/18 22:23:02;;;;;;;5.60;1.33;;;10.40;99.90;;;;;;20450372;29;20557;-76
2021/04/18 22:33:06;;;;;;;0.60;0.37;;;10.50;99.90;;;;;;20406769;29;20225;-75
2021/04/18 22:43:09;;;;;;;0.47;0.47;;;10.70;99.90;;;;;;20379769;29;20212;-76
2021/04/18 22:53:12;;;;;;;0.50;0.50;;;10.70;99.90;;;;;;20380503;29;20343;-73
2021/04/18 23:03:15;;;;;;;0.73;0.73;;;10.80;99.90;;;;;;20412181;29;20914;-74
2021/04/18 23:13:18;;;;;;;0.30;0.30;;;10.80;99.90;;;;;;20455393;29;20247;-74
2021/04/18 23:23:22;;;;;;;0.20;0.20;;;10.60;99.90;;;;;;20455329;29;20642;-73
2021/04/18 23:33:25;;;;;;;0.20;0.20;;;10.40;99.90;;;;;;20454763;28;20232;-74
2021/04/18 23:43:28;;;;;;;0.83;0.30;;;10.30;99.90;;;;;;20452327;29;20196;-72
2021/04/18 23:53:31;;;;;;;0.40;0.40;;;10.00;99.90;;;;;;20436413;29;20223;-74
